Time;durP1;ratioP1;P1;durP2;ratioP2;P2;SDS_P1;SDS_P2;PMS_P1;PMS_P2;Temp;Humidity;BMP_temperature;BMP_pressure;BME280_temperature;BME280_humidity;BME280_pressure;Samples;Min_cycle;Max_cycle;Signal;HPM_P1;HPM_P2
2022/11/20 00:01:52;;;;;;;8.15;5.28;;;;;;;;;;4955082;29;20031;-60
2022/11/20 00:04:18;;;;;;;8.30;5.05;;;;;;;;;;4955018;28;20031;-60
2022/11/20 00:06:45;;;;;;;8.07;4.78;;;;;;;;;;4963763;28;20446;-61
2022/11/20 00:09:11;;;;;;;8.35;5.30;;;;;;;;;;4963974;28;20026;-60
2022/11/20 00:11:37;;;;;;;8.48;5.25;;;;;;;;;;4965077;28;20026;-61
2022/11/20 00:14:03;;;;;;;6.88;5.18;;;;;;;;;;4960563;28;20411;-60
2022/11/20 00:16:31;;;;;;;7.07;5.10;;;;;;;;;;4962777;28;20029;-68
2022/11/20 00:18:57;;;;;;;7.20;4.97;;;;;;;;;;4963024;28;20514;-60
2022/11/20 00:21:24;;;;;;;8.20;5.43;;;;;;;;;;4963595;28;20027;-58
2022/11/20 00:23:51;;;;;;;8.73;5.53;;;;;;;;;;4963408;28;20028;-61
2022/11/20 00:26:18;;;;;;;8.70;5.40;;;;;;;;;;4962039;28;20074;-60
2022/11/20 00:28:44;;;;;;;8.98;5.78;;;;;;;;;;4963738;28;20018;-61
2022/11/20 00:31:15;;;;;;;8.13;5.18;;;;;;;;;;4959317;28;20058;-61
2022/11/20 00:33:42;;;;;;;7.43;4.90;;;;;;;;;;4962136;28;20106;-58
2022/11/20 00:36:11;;;;;;;8.45;5.22;;;;;;;;;;4963214;28;20034;-58
2022/11/20 00:38:38;;;;;;;8.07;5.68;;;;;;;;;;4964013;28;20031;-58
2022/11/20 00:41:05;;;;;;;9.20;5.80;;;;;;;;;;4961842;28;20020;-58
2022/11/20 00:43:31;;;;;;;8.68;5.65;;;;;;;;;;4962923;28;20031;-66
2022/11/20 07:52:35;;;;;;;84.38;24.13;;;;;;;;;;5048152;28;20384;-69
2022/11/20 07:55:01;;;;;;;36.13;19.40;;;;;;;;;;5048088;28;20033;-70
2022/11/20 07:57:27;;;;;;;35.50;20.10;;;;;;;;;;5048230;28;20091;-62
2022/11/20 07:59:53;;;;;;;33.50;17.65;;;;;;;;;;5048125;28;20120;-63
2022/11/20 08:02:19;;;;;;;31.60;18.33;;;;;;;;;;5047814;28;20100;-68
2022/11/20 08:04:45;;;;;;;28.98;17.50;;;;;;;;;;5048058;28;20392;-62
2022/11/20 08:07:11;;;;;;;37.70;17.60;;;;;;;;;;5047922;28;20030;-62
2022/11/20 08:09:37;;;;;;;27.02;15.52;;;;;;;;;;5047792;28;20120;-63
2022/11/20 08:14:48;;;;;;;29.52;16.40;;;;;;;;;;5047692;28;20060;-62
2022/11/20 08:17:14;;;;;;;25.75;14.93;;;;;;;;;;5047678;28;20037;-71
2022/11/20 08:19:40;;;;;;;20.48;12.82;;;;;;;;;;5047867;28;20427;-62
2022/11/20 08:22:06;;;;;;;22.35;13.85;;;;;;;;;;5045457;28;20037;-62
2022/11/20 08:24:32;;;;;;;22.50;12.63;;;;;;;;;;5047359;28;20036;-70
2022/11/20 08:27:01;;;;;;;17.80;12.02;;;;;;;;;;5047519;28;20030;-62
2022/11/20 08:29:27;;;;;;;21.95;14.63;;;;;;;;;;5047620;28;20029;-62
2022/11/20 08:31:53;;;;;;;38.83;16.00;;;;;;;;;;5047425;28;20059;-69
2022/11/20 08:34:19;;;;;;;21.45;14.00;;;;;;;;;;5047893;28;20076;-70
2022/11/20 08:36:46;;;;;;;26.73;16.75;;;;;;;;;;5047177;28;20432;-62
2022/11/20 08:39:13;;;;;;;20.40;11.90;;;;;;;;;;5047257;28;20032;-69
2022/11/20 08:41:39;;;;;;;18.73;11.65;;;;;;;;;;5047586;28;20021;-61
2022/11/20 08:44:06;;;;;;;16.15;9.73;;;;;;;;;;5047506;28;20021;-61
2022/11/20 08:46:40;;;;;;;18.38;11.23;;;;;;;;;;5047593;28;20061;-68
2022/11/20 08:49:07;;;;;;;25.23;9.60;;;;;;;;;;5047112;28;20400;-70
2022/11/20 08:51:34;;;;;;;23.55;11.98;;;;;;;;;;5046709;28;20136;-70
2022/11/20 08:54:00;;;;;;;21.75;11.38;;;;;;;;;;5041965;28;20104;-63
2022/11/20 08:56:26;;;;;;;59.47;23.58;;;;;;;;;;5034545;28;20021;-61
2022/11/20 08:58:52;;;;;;;27.92;14.35;;;;;;;;;;5028678;28;20031;-61
2022/11/20 09:01:22;;;;;;;33.70;17.30;;;;;;;;;;5034410;28;20033;-61
2022/11/20 09:03:49;;;;;;;34.90;15.15;;;;;;;;;;5027572;28;20043;-65
2022/11/20 09:06:15;;;;;;;46.10;21.08;;;;;;;;;;5033453;28;20033;-61
2022/11/20 09:08:41;;;;;;;32.58;16.75;;;;;;;;;;5033504;28;20021;-64
2022/11/20 09:11:07;;;;;;;32.50;17.27;;;;;;;;;;5032846;28;20045;-63
2022/11/20 09:13:34;;;;;;;30.15;16.58;;;;;;;;;;5032564;28;20100;-66
2022/11/20 09:16:02;;;;;;;39.63;18.30;;;;;;;;;;5033378;28;20496;-63
2022/11/20 09:18:28;;;;;;;54.03;17.70;;;;;;;;;;5033739;28;20036;-68
2022/11/20 09:21:01;;;;;;;38.13;19.73;;;;;;;;;;5033239;28;20069;-71
2022/11/20 09:23:28;;;;;;;60.70;17.15;;;;;;;;;;5033265;28;20029;-62
2022/11/20 09:25:55;;;;;;;34.33;17.58;;;;;;;;;;5033141;28;20033;-63
2022/11/20 09:28:21;;;;;;;30.45;16.05;;;;;;;;;;5033111;28;20026;-63
2022/11/20 09:30:47;;;;;;;30.23;17.00;;;;;;;;;;5033067;28;20029;-62
2022/11/20 09:33:13;;;;;;;99.55;18.35;;;;;;;;;;5031170;28;20417;-63
2022/11/20 09:35:39;;;;;;;33.28;19.17;;;;;;;;;;5022691;28;20519;-65
2022/11/20 09:38:10;;;;;;;77.72;18.15;;;;;;;;;;5027246;28;20026;-69
2022/11/20 09:40:39;;;;;;;38.08;20.60;;;;;;;;;;5021421;28;20018;-68
2022/11/20 09:43:14;;;;;;;37.65;18.67;;;;;;;;;;5026387;28;20021;-69
2022/11/20 09:45:46;;;;;;;87.47;19.00;;;;;;;;;;5020472;28;20040;-63
2022/11/20 09:48:15;;;;;;;82.40;20.88;;;;;;;;;;5021029;28;20124;-68
2022/11/20 09:51:00;;;;;;;41.60;19.38;;;;;;;;;;5023042;28;20042;-66
2022/11/20 09:53:26;;;;;;;39.13;15.70;;;;;;;;;;5023975;28;20034;-66
2022/11/20 09:55:53;;;;;;;36.13;17.42;;;;;;;;;;5015709;28;20029;-69
2022/11/20 09:58:29;;;;;;;32.88;17.02;;;;;;;;;;5019841;28;20026;-62
2022/11/20 10:00:57;;;;;;;32.78;16.63;;;;;;;;;;5032832;28;20037;-62
2022/11/20 10:03:31;;;;;;;37.00;18.30;;;;;;;;;;5025473;28;20032;-62
2022/11/20 10:05:58;;;;;;;33.17;17.58;;;;;;;;;;5019153;28;20038;-66
2022/11/20 10:08:25;;;;;;;27.02;15.27;;;;;;;;;;5016779;28;20030;-62
2022/11/20 10:11:00;;;;;;;37.17;17.00;;;;;;;;;;5012316;28;20042;-63
2022/11/20 10:13:35;;;;;;;31.08;19.70;;;;;;;;;;5013555;28;20022;-62
2022/11/20 10:16:08;;;;;;;33.20;19.40;;;;;;;;;;5021892;28;20104;-70
2022/11/20 10:18:57;;;;;;;29.17;16.20;;;;;;;;;;5022166;28;20112;-63
2022/11/20 10:21:26;;;;;;;29.48;15.52;;;;;;;;;;4979660;28;20054;-69
2022/11/20 10:23:55;;;;;;;34.47;17.50;;;;;;;;;;4978120;28;20035;-64
2022/11/20 10:26:26;;;;;;;49.47;21.20;;;;;;;;;;4979070;28;20035;-68
2022/11/20 10:29:02;;;;;;;35.53;18.48;;;;;;;;;;4980074;28;20109;-62
2022/11/20 10:31:38;;;;;;;39.95;15.98;;;;;;;;;;4989663;28;20408;-71
2022/11/20 10:34:15;;;;;;;26.90;15.98;;;;;;;;;;4990342;28;20153;-72
2022/11/20 10:36:46;;;;;;;35.88;16.67;;;;;;;;;;4990384;28;20030;-67
2022/11/20 10:39:19;;;;;;;51.83;15.45;;;;;;;;;;4990359;28;20429;-63
2022/11/20 10:41:48;;;;;;;28.98;15.77;;;;;;;;;;4989182;28;20394;-62
2022/11/20 10:45:05;;;;;;;51.65;16.35;;;;;;;;;;4978303;28;20034;-65
2022/11/20 10:47:10;;;;;;;32.90;15.80;;;;;;;;;;4971624;28;20113;-62
2022/11/20 10:49:36;;;;;;;120.30;23.25;;;;;;;;;;4978633;28;20027;-69
2022/11/20 10:52:02;;;;;;;44.67;22.20;;;;;;;;;;4979646;28;20050;-71
2022/11/20 10:54:39;;;;;;;36.83;21.17;;;;;;;;;;4972706;28;20034;-61
2022/11/20 10:57:18;;;;;;;38.05;19.52;;;;;;;;;;4969801;28;20035;-71
2022/11/20 10:59:47;;;;;;;37.97;19.23;;;;;;;;;;5011893;28;20577;-66
2022/11/20 11:02:16;;;;;;;29.35;15.68;;;;;;;;;;5011714;28;20033;-66
2022/11/20 11:04:52;;;;;;;31.52;16.42;;;;;;;;;;5011578;28;20100;-63
2022/11/20 11:07:47;;;;;;;29.65;16.30;;;;;;;;;;5011606;28;20370;-62
2022/11/20 11:10:23;;;;;;;32.22;16.50;;;;;;;;;;4969994;28;20057;-63
2022/11/20 11:12:49;;;;;;;36.35;18.30;;;;;;;;;;4970260;28;20049;-62
2022/11/20 11:15:25;;;;;;;44.35;20.10;;;;;;;;;;4970108;28;20030;-65
2022/11/20 11:17:51;;;;;;;35.20;19.50;;;;;;;;;;4970039;28;20206;-62
2022/11/20 11:20:18;;;;;;;40.03;20.98;;;;;;;;;;4969727;28;20095;-67
2022/11/20 11:22:46;;;;;;;38.33;19.02;;;;;;;;;;4970097;28;20157;-62
2022/11/20 11:25:27;;;;;;;45.00;22.70;;;;;;;;;;4969394;28;20282;-68
2022/11/20 11:27:55;;;;;;;34.22;18.95;;;;;;;;;;4979841;28;20035;-63
2022/11/20 11:30:22;;;;;;;31.20;16.02;;;;;;;;;;4987755;28;20065;-62
2022/11/20 11:32:49;;;;;;;36.85;20.13;;;;;;;;;;4981943;28;20133;-62
2022/11/20 11:35:21;;;;;;;32.25;16.65;;;;;;;;;;4989009;28;20026;-62
2022/11/20 11:37:48;;;;;;;28.05;14.90;;;;;;;;;;4989441;28;20030;-66
2022/11/20 11:40:14;;;;;;;22.05;12.73;;;;;;;;;;4988896;28;20047;-63
2022/11/20 11:42:44;;;;;;;23.45;12.80;;;;;;;;;;4989227;28;20038;-64
2022/11/20 11:45:17;;;;;;;25.52;12.98;;;;;;;;;;4988856;28;20596;-62
2022/11/20 11:47:43;;;;;;;21.48;11.40;;;;;;;;;;5010051;28;20045;-70
2022/11/20 11:50:09;;;;;;;19.17;10.57;;;;;;;;;;5010120;28;20021;-61
2022/11/20 11:52:42;;;;;;;22.38;11.00;;;;;;;;;;5010134;28;20025;-63
2022/11/20 11:55:12;;;;;;;22.58;12.68;;;;;;;;;;5011287;28;20029;-63
2022/11/20 11:57:47;;;;;;;20.30;12.25;;;;;;;;;;5011044;28;20037;-62
2022/11/20 12:00:15;;;;;;;21.02;11.57;;;;;;;;;;5010908;28;20018;-62
2022/11/20 12:02:48;;;;;;;23.25;12.80;;;;;;;;;;5010992;28;20064;-64
2022/11/20 12:05:27;;;;;;;23.52;13.77;;;;;;;;;;5010700;28;20033;-62
2022/11/20 12:07:53;;;;;;;26.02;13.02;;;;;;;;;;5010266;28;20057;-62
2022/11/20 12:10:29;;;;;;;24.52;14.27;;;;;;;;;;5010653;28;20061;-62
2022/11/20 12:13:01;;;;;;;28.40;15.65;;;;;;;;;;5011143;28;20033;-62
2022/11/20 12:15:30;;;;;;;26.37;14.63;;;;;;;;;;5010863;28;20407;-64
2022/11/20 12:17:56;;;;;;;30.77;16.23;;;;;;;;;;5010685;28;20469;-71
2022/11/20 12:20:24;;;;;;;28.13;15.52;;;;;;;;;;5010446;28;20086;-66
2022/11/20 12:22:59;;;;;;;30.20;16.00;;;;;;;;;;5010798;28;20030;-61
2022/11/20 12:25:28;;;;;;;27.23;13.95;;;;;;;;;;5010713;28;20535;-61
2022/11/20 12:28:00;;;;;;;27.67;14.23;;;;;;;;;;5010876;28;20419;-62
2022/11/20 12:30:26;;;;;;;28.63;14.63;;;;;;;;;;5010887;28;20485;-61
2022/11/20 12:33:01;;;;;;;28.45;16.52;;;;;;;;;;5011021;28;20054;-61
2022/11/20 12:35:30;;;;;;;25.00;13.48;;;;;;;;;;5010941;28;20030;-63
2022/11/20 12:38:05;;;;;;;28.20;15.55;;;;;;;;;;5012363;28;20033;-60
2022/11/20 12:40:34;;;;;;;26.52;15.80;;;;;;;;;;5014636;28;20508;-62
2022/11/20 12:46:00;;;;;;;22.92;13.40;;;;;;;;;;5033930;28;20059;-65
2022/11/20 12:48:29;;;;;;;22.88;12.77;;;;;;;;;;5033939;28;20552;-68
2022/11/20 12:50:59;;;;;;;23.40;12.98;;;;;;;;;;5033376;28;20516;-65
2022/11/20 12:53:28;;;;;;;25.70;13.55;;;;;;;;;;5033774;28;20075;-61
2022/11/20 12:55:57;;;;;;;23.08;12.73;;;;;;;;;;5033702;28;20436;-64
2022/11/20 12:58:44;;;;;;;18.15;9.57;;;;;;;;;;5033558;28;20461;-71
2022/11/20 13:01:39;;;;;;;26.63;14.05;;;;;;;;;;5031923;28;20389;-67
2022/11/20 13:04:32;;;;;;;23.25;12.98;;;;;;;;;;5033306;28;20552;-68
2022/11/20 13:06:58;;;;;;;27.02;14.35;;;;;;;;;;5031872;28;20129;-63
2022/11/20 13:09:26;;;;;;;30.20;15.40;;;;;;;;;;5032946;28;20029;-68
2022/11/20 13:12:18;;;;;;;27.35;14.30;;;;;;;;;;5032085;28;20132;-66
2022/11/20 13:15:03;;;;;;;28.30;15.35;;;;;;;;;;5031288;28;20512;-68
2022/11/20 13:17:38;;;;;;;27.88;14.55;;;;;;;;;;5031514;28;20044;-66
2022/11/20 13:20:06;;;;;;;22.90;13.77;;;;;;;;;;5032132;28;20033;-67
2022/11/20 13:22:48;;;;;;;25.15;13.80;;;;;;;;;;5031943;28;20116;-65
2022/11/20 13:25:23;;;;;;;30.35;15.80;;;;;;;;;;5032032;28;20037;-66
2022/11/20 13:27:50;;;;;;;21.30;10.85;;;;;;;;;;5031806;28;20036;-68
2022/11/20 13:30:18;;;;;;;29.80;16.02;;;;;;;;;;5032219;28;20096;-62
2022/11/20 13:32:55;;;;;;;31.67;15.45;;;;;;;;;;5031824;28;20064;-63
2022/11/20 13:35:25;;;;;;;27.08;15.50;;;;;;;;;;5031704;28;20028;-63
2022/11/20 13:38:00;;;;;;;29.50;15.52;;;;;;;;;;5031565;28;20036;-67
2022/11/20 13:40:27;;;;;;;33.70;18.20;;;;;;;;;;5032284;28;20075;-64
2022/11/20 13:42:57;;;;;;;31.50;18.05;;;;;;;;;;5031467;28;20025;-68
2022/11/20 13:45:28;;;;;;;32.17;16.25;;;;;;;;;;5022901;28;20413;-67
2022/11/20 13:47:55;;;;;;;32.00;16.95;;;;;;;;;;5026161;28;20029;-62
2022/11/20 13:50:40;;;;;;;33.28;17.38;;;;;;;;;;5031617;28;20412;-64
2022/11/20 13:53:09;;;;;;;33.78;17.48;;;;;;;;;;5031958;28;20033;-66
2022/11/20 13:55:38;;;;;;;29.20;15.48;;;;;;;;;;5032289;28;20106;-65
2022/11/20 13:58:16;;;;;;;29.30;15.85;;;;;;;;;;5031846;28;20029;-65
2022/11/20 14:00:48;;;;;;;26.20;14.57;;;;;;;;;;5031716;28;20030;-64
2022/11/20 14:03:19;;;;;;;29.77;16.33;;;;;;;;;;5031813;28;20034;-64
2022/11/20 14:05:51;;;;;;;25.38;13.10;;;;;;;;;;5031290;28;20025;-67
2022/11/20 14:08:25;;;;;;;20.23;10.63;;;;;;;;;;5031669;28;20025;-65
2022/11/20 14:10:51;;;;;;;23.30;11.43;;;;;;;;;;5031520;28;20138;-67
2022/11/20 14:13:21;;;;;;;30.00;13.60;;;;;;;;;;5031342;28;20105;-61
2022/11/20 14:15:47;;;;;;;40.92;17.17;;;;;;;;;;5031323;28;20741;-66
2022/11/20 14:18:15;;;;;;;88.47;28.95;;;;;;;;;;5031708;28;20526;-67
2022/11/20 14:20:42;;;;;;;35.95;17.90;;;;;;;;;;5030579;28;20397;-63
2022/11/20 14:23:10;;;;;;;31.92;15.82;;;;;;;;;;5031087;28;20124;-65
2022/11/20 14:25:36;;;;;;;30.33;17.13;;;;;;;;;;5030660;28;20025;-66
2022/11/20 14:28:03;;;;;;;35.20;19.73;;;;;;;;;;5031007;28;20075;-65
2022/11/20 14:30:36;;;;;;;34.95;18.73;;;;;;;;;;5031211;28;20030;-67
2022/11/20 14:33:03;;;;;;;35.10;19.10;;;;;;;;;;5031002;28;20481;-65
2022/11/20 14:35:31;;;;;;;37.17;19.67;;;;;;;;;;5030798;28;20029;-65
2022/11/20 14:37:58;;;;;;;26.48;15.48;;;;;;;;;;5031060;28;20029;-64
2022/11/20 14:40:24;;;;;;;26.33;14.38;;;;;;;;;;5030699;28;20037;-65
2022/11/20 14:42:50;;;;;;;25.25;15.07;;;;;;;;;;5030721;28;20079;-66
2022/11/20 14:45:17;;;;;;;25.10;12.82;;;;;;;;;;5030483;28;20132;-68
2022/11/20 14:47:43;;;;;;;24.85;13.35;;;;;;;;;;5030305;28;20025;-65
2022/11/20 14:50:29;;;;;;;24.50;12.93;;;;;;;;;;5030407;28;20056;-60
2022/11/20 14:52:59;;;;;;;21.52;12.40;;;;;;;;;;5030330;28;20030;-61
2022/11/20 14:55:45;;;;;;;22.90;11.50;;;;;;;;;;5031556;28;20469;-62
2022/11/20 14:58:25;;;;;;;24.83;13.10;;;;;;;;;;5031056;28;20034;-68
2022/11/20 15:00:58;;;;;;;21.75;11.98;;;;;;;;;;5030591;28;20029;-63
2022/11/20 15:03:31;;;;;;;22.95;12.07;;;;;;;;;;5030598;28;20034;-66
2022/11/20 15:05:57;;;;;;;17.33;10.02;;;;;;;;;;5028843;28;20056;-68
2022/11/20 15:08:23;;;;;;;23.15;12.45;;;;;;;;;;5028652;28;20069;-70
2022/11/20 15:10:50;;;;;;;23.15;12.93;;;;;;;;;;5029612;28;20124;-71
2022/11/20 15:13:18;;;;;;;25.33;15.38;;;;;;;;;;5019754;28;20021;-61
2022/11/20 15:15:50;;;;;;;22.40;12.98;;;;;;;;;;5019513;28;20049;-71
2022/11/20 15:18:17;;;;;;;22.13;13.30;;;;;;;;;;5017555;28;20017;-68
2022/11/20 15:20:43;;;;;;;22.38;12.93;;;;;;;;;;5018205;28;20034;-69
2022/11/20 15:23:11;;;;;;;22.33;12.68;;;;;;;;;;5015031;28;20033;-71
2022/11/20 15:25:38;;;;;;;21.20;11.50;;;;;;;;;;5016498;28;20026;-62
2022/11/20 15:28:05;;;;;;;21.77;12.32;;;;;;;;;;5017502;28;20038;-64
2022/11/20 15:30:31;;;;;;;25.35;14.15;;;;;;;;;;5009564;28;20033;-66
2022/11/20 15:32:57;;;;;;;28.42;15.45;;;;;;;;;;5010573;28;20037;-63
2022/11/20 15:35:23;;;;;;;34.63;18.48;;;;;;;;;;5015014;28;20121;-65
2022/11/20 15:38:14;;;;;;;99.55;36.50;;;;;;;;;;5028066;28;20119;-68
2022/11/20 15:40:40;;;;;;;102.05;32.47;;;;;;;;;;5015194;28;20030;-61
2022/11/20 15:43:07;;;;;;;49.28;19.45;;;;;;;;;;5011121;28;20104;-61
2022/11/20 15:45:42;;;;;;;42.08;19.23;;;;;;;;;;5011229;28;20026;-62
2022/11/20 15:48:31;;;;;;;28.58;16.02;;;;;;;;;;5011097;28;20026;-61
2022/11/20 15:50:57;;;;;;;25.20;14.05;;;;;;;;;;5009700;28;20041;-68
2022/11/20 15:53:23;;;;;;;26.88;14.18;;;;;;;;;;5020353;28;20389;-61
2022/11/20 15:55:49;;;;;;;22.02;13.07;;;;;;;;;;5019654;28;20481;-61
2022/11/20 15:58:16;;;;;;;20.80;11.43;;;;;;;;;;5018601;28;20378;-70
2022/11/20 16:00:42;;;;;;;24.05;12.82;;;;;;;;;;5018582;28;20026;-61
2022/11/20 16:03:11;;;;;;;21.13;13.45;;;;;;;;;;5019325;28;20106;-61
2022/11/20 16:05:37;;;;;;;22.63;13.80;;;;;;;;;;5017341;28;20053;-63
2022/11/20 16:08:03;;;;;;;22.45;12.77;;;;;;;;;;5030038;28;20179;-70
2022/11/20 16:10:29;;;;;;;24.45;13.77;;;;;;;;;;5030657;28;20025;-71
2022/11/20 16:15:46;;;;;;;19.30;12.02;;;;;;;;;;5028575;28;20502;-62
2022/11/20 16:18:13;;;;;;;23.58;13.88;;;;;;;;;;5025010;28;20057;-60
2022/11/20 16:20:39;;;;;;;23.42;13.60;;;;;;;;;;5034321;28;20518;-66
2022/11/20 16:23:06;;;;;;;23.35;13.48;;;;;;;;;;5034650;28;20048;-65
2022/11/20 16:25:32;;;;;;;25.48;13.70;;;;;;;;;;5033283;28;20022;-62
2022/11/20 16:27:58;;;;;;;21.13;12.88;;;;;;;;;;5014228;28;20036;-63
2022/11/20 16:30:24;;;;;;;23.23;14.38;;;;;;;;;;5014512;28;20029;-61
2022/11/20 16:32:50;;;;;;;25.25;13.90;;;;;;;;;;5014611;28;20036;-62
2022/11/20 16:35:16;;;;;;;27.48;15.50;;;;;;;;;;5014327;28;20025;-61
2022/11/20 16:37:42;;;;;;;24.98;15.35;;;;;;;;;;5014354;28;20033;-68
2022/11/20 16:40:09;;;;;;;23.73;13.73;;;;;;;;;;5014660;28;20125;-63
2022/11/20 16:42:36;;;;;;;21.38;13.02;;;;;;;;;;5014524;28;20022;-63
2022/11/20 16:45:02;;;;;;;23.05;12.77;;;;;;;;;;5014161;28;20029;-63
2022/11/20 16:47:28;;;;;;;20.73;12.48;;;;;;;;;;5014350;28;20101;-63
2022/11/20 16:49:54;;;;;;;21.75;12.50;;;;;;;;;;5014047;28;20022;-65
2022/11/20 16:52:20;;;;;;;21.90;13.00;;;;;;;;;;5013799;28;20058;-68
2022/11/20 16:54:46;;;;;;;22.45;13.05;;;;;;;;;;5013943;28;20022;-71
2022/11/20 16:57:12;;;;;;;24.00;14.15;;;;;;;;;;5013579;28;20088;-66
2022/11/20 16:59:38;;;;;;;23.42;13.77;;;;;;;;;;5014251;28;20493;-61
2022/11/20 17:02:04;;;;;;;29.00;14.95;;;;;;;;;;5014142;28;20032;-62
2022/11/20 17:04:30;;;;;;;24.50;13.13;;;;;;;;;;5014015;28;20396;-65
2022/11/20 17:06:56;;;;;;;19.35;12.57;;;;;;;;;;5013915;28;20026;-63
2022/11/20 17:09:22;;;;;;;27.80;15.68;;;;;;;;;;5014173;28;20029;-62
2022/11/20 17:11:48;;;;;;;25.02;14.38;;;;;;;;;;5013857;28;20038;-62
2022/11/20 17:14:14;;;;;;;24.65;14.23;;;;;;;;;;5013784;28;20030;-62
2022/11/20 17:16:41;;;;;;;22.63;13.88;;;;;;;;;;5013636;28;20037;-62
2022/11/20 17:19:08;;;;;;;21.05;12.88;;;;;;;;;;5013594;28;20018;-67
2022/11/20 17:21:34;;;;;;;25.77;13.35;;;;;;;;;;5013655;28;20038;-62
2022/11/20 17:24:03;;;;;;;25.10;14.50;;;;;;;;;;5013100;28;20041;-67
2022/11/20 17:26:30;;;;;;;21.83;12.60;;;;;;;;;;5013492;28;20029;-67
2022/11/20 17:29:16;;;;;;;24.95;14.32;;;;;;;;;;5013849;28;20026;-62
2022/11/20 17:31:43;;;;;;;24.75;15.10;;;;;;;;;;5011904;28;20413;-68
2022/11/20 17:34:12;;;;;;;28.05;14.73;;;;;;;;;;5016406;28;20068;-62
2022/11/20 17:36:40;;;;;;;24.63;13.95;;;;;;;;;;5016722;28;20038;-62
2022/11/20 17:39:07;;;;;;;23.65;13.48;;;;;;;;;;5013307;28;20030;-62
2022/11/20 17:41:33;;;;;;;22.95;13.45;;;;;;;;;;5026801;28;20021;-64
2022/11/20 17:44:00;;;;;;;21.42;12.73;;;;;;;;;;5032879;28;20033;-62
2022/11/20 17:46:28;;;;;;;22.88;13.88;;;;;;;;;;5033073;28;20522;-62
2022/11/20 17:48:54;;;;;;;22.42;13.18;;;;;;;;;;5032987;28;20059;-61
2022/11/20 17:51:21;;;;;;;28.20;15.27;;;;;;;;;;5032485;28;20524;-62
2022/11/20 17:53:49;;;;;;;24.42;13.43;;;;;;;;;;5032497;28;20132;-62
2022/11/20 17:59:03;;;;;;;29.77;15.50;;;;;;;;;;5032651;28;20048;-62
2022/11/20 18:01:29;;;;;;;29.83;17.13;;;;;;;;;;5032443;28;20040;-64
2022/11/20 18:03:58;;;;;;;28.08;16.33;;;;;;;;;;5032293;28;20029;-66
2022/11/20 18:06:25;;;;;;;29.60;15.07;;;;;;;;;;5032727;28;20424;-62
2022/11/20 18:08:52;;;;;;;29.30;16.55;;;;;;;;;;5032490;28;20108;-63
2022/11/20 18:11:19;;;;;;;33.25;17.27;;;;;;;;;;5032646;28;20041;-62
2022/11/20 18:16:31;;;;;;;30.70;16.23;;;;;;;;;;5032386;28;20039;-64
2022/11/20 18:18:58;;;;;;;31.85;17.58;;;;;;;;;;5032388;28;20083;-65
2022/11/20 18:21:25;;;;;;;32.38;16.60;;;;;;;;;;5032499;28;20037;-60
2022/11/20 18:23:51;;;;;;;31.60;18.13;;;;;;;;;;5032307;28;20026;-61
2022/11/20 18:26:18;;;;;;;34.35;19.23;;;;;;;;;;5032410;28;20029;-61
2022/11/20 18:28:44;;;;;;;32.00;17.85;;;;;;;;;;5031934;28;20030;-62
2022/11/20 18:31:10;;;;;;;32.13;18.02;;;;;;;;;;5031919;28;20037;-62
2022/11/20 18:33:36;;;;;;;33.63;18.02;;;;;;;;;;5031822;28;20057;-61
2022/11/20 18:36:12;;;;;;;33.25;18.63;;;;;;;;;;5030507;28;20033;-62
2022/11/20 18:38:43;;;;;;;34.70;17.90;;;;;;;;;;5031587;28;20033;-67
2022/11/20 18:44:50;;;;;;;31.83;18.33;;;;;;;;;;5031689;28;20037;-65
2022/11/20 18:46:41;;;;;;;31.42;17.88;;;;;;;;;;5031422;28;20075;-65
2022/11/20 18:49:07;;;;;;;35.25;19.67;;;;;;;;;;5031045;28;20024;-61
2022/11/20 18:51:33;;;;;;;36.70;19.98;;;;;;;;;;5030678;28;20132;-62
2022/11/20 18:53:59;;;;;;;29.23;17.35;;;;;;;;;;5031335;28;20459;-67
2022/11/20 18:56:25;;;;;;;30.67;17.42;;;;;;;;;;5031505;28;20036;-61
2022/11/20 18:58:51;;;;;;;34.03;18.63;;;;;;;;;;5031456;28;20021;-61
2022/11/20 19:01:17;;;;;;;35.40;20.10;;;;;;;;;;5031724;28;20105;-66
2022/11/20 19:03:45;;;;;;;33.00;19.30;;;;;;;;;;5031178;28;20384;-62
2022/11/20 19:06:14;;;;;;;34.70;18.80;;;;;;;;;;5030913;28;20642;-66
2022/11/20 19:08:40;;;;;;;32.35;18.92;;;;;;;;;;5030808;28;20034;-63
2022/11/20 19:11:07;;;;;;;32.90;17.75;;;;;;;;;;5031175;28;20037;-67
2022/11/20 19:13:33;;;;;;;30.63;18.45;;;;;;;;;;5031412;28;20114;-67
2022/11/20 19:16:03;;;;;;;32.90;18.90;;;;;;;;;;5031348;28;20033;-66
2022/11/20 19:18:29;;;;;;;31.20;18.90;;;;;;;;;;5030908;28;20056;-63
2022/11/20 19:20:55;;;;;;;34.35;18.58;;;;;;;;;;5031325;28;20432;-63
2022/11/20 19:23:21;;;;;;;32.13;18.85;;;;;;;;;;5031067;28;20029;-68
2022/11/20 19:25:47;;;;;;;35.72;20.10;;;;;;;;;;5031071;28;20104;-63
2022/11/20 19:28:13;;;;;;;32.30;18.40;;;;;;;;;;5031238;28;20029;-63
2022/11/20 19:30:40;;;;;;;33.28;18.13;;;;;;;;;;5030870;28;20378;-75
2022/11/20 19:33:06;;;;;;;34.25;18.75;;;;;;;;;;5027239;28;20029;-62
2022/11/20 19:35:33;;;;;;;33.60;18.52;;;;;;;;;;5030670;28;20021;-69
2022/11/20 19:37:59;;;;;;;30.05;17.52;;;;;;;;;;5022095;28;20050;-70
2022/11/20 19:40:25;;;;;;;33.85;19.35;;;;;;;;;;5010900;28;20053;-67
2022/11/20 19:42:51;;;;;;;37.35;19.63;;;;;;;;;;5011110;28;20022;-62
2022/11/20 19:45:17;;;;;;;35.13;19.77;;;;;;;;;;5011099;28;20022;-62
2022/11/20 19:47:43;;;;;;;34.15;19.00;;;;;;;;;;5010723;28;20597;-61
2022/11/20 19:50:09;;;;;;;34.65;18.77;;;;;;;;;;5011132;28;20038;-62
2022/11/20 19:52:35;;;;;;;36.70;20.05;;;;;;;;;;5010882;28;20053;-62
2022/11/20 19:55:01;;;;;;;33.22;18.58;;;;;;;;;;5011068;28;20036;-62
2022/11/20 19:57:27;;;;;;;33.50;18.25;;;;;;;;;;5011293;28;20064;-62
2022/11/20 19:59:54;;;;;;;33.42;19.30;;;;;;;;;;5011108;28;20049;-64
2022/11/20 20:02:20;;;;;;;38.53;18.83;;;;;;;;;;5011459;28;20018;-62
2022/11/20 20:04:46;;;;;;;31.77;18.13;;;;;;;;;;5010890;28;20061;-62
2022/11/20 20:07:12;;;;;;;32.70;16.38;;;;;;;;;;5010832;28;20040;-61
2022/11/20 20:09:39;;;;;;;32.40;17.55;;;;;;;;;;5011111;28;20478;-62
2022/11/20 20:12:05;;;;;;;33.83;19.48;;;;;;;;;;5011839;28;20076;-63
2022/11/20 20:14:31;;;;;;;32.92;18.38;;;;;;;;;;5020517;28;20128;-62
2022/11/20 20:16:57;;;;;;;33.35;18.17;;;;;;;;;;5016276;28;20167;-61
2022/11/20 20:19:23;;;;;;;35.60;18.08;;;;;;;;;;5017723;28;20025;-60
2022/11/20 20:21:49;;;;;;;27.85;14.77;;;;;;;;;;5018711;28;20086;-64
2022/11/20 20:24:15;;;;;;;34.35;18.77;;;;;;;;;;5021494;28;20167;-63
2022/11/20 20:26:41;;;;;;;32.88;18.27;;;;;;;;;;5028789;28;20132;-65
2022/11/20 20:29:07;;;;;;;30.33;15.50;;;;;;;;;;5020768;28;20022;-62
2022/11/20 20:31:34;;;;;;;34.30;18.58;;;;;;;;;;5019182;28;20077;-66
2022/11/20 20:34:02;;;;;;;36.45;17.65;;;;;;;;;;5030552;28;20036;-62
2022/11/20 20:36:28;;;;;;;31.00;17.05;;;;;;;;;;5030519;28;20393;-62
2022/11/20 20:38:55;;;;;;;34.78;16.77;;;;;;;;;;5030327;28;20033;-62
2022/11/20 20:41:22;;;;;;;33.97;18.48;;;;;;;;;;5030419;28;20032;-63
2022/11/20 20:46:32;;;;;;;32.83;16.08;;;;;;;;;;5030764;28;20083;-62
2022/11/20 20:48:59;;;;;;;34.67;17.75;;;;;;;;;;5030317;28;20022;-62
2022/11/20 20:51:25;;;;;;;38.13;18.10;;;;;;;;;;5029911;28;20062;-62
2022/11/20 20:53:51;;;;;;;32.75;17.83;;;;;;;;;;5030475;28;20044;-60
2022/11/20 20:56:17;;;;;;;32.67;17.55;;;;;;;;;;5030189;28;20558;-61
2022/11/20 20:58:43;;;;;;;33.10;18.02;;;;;;;;;;5031739;28;20437;-60
2022/11/20 21:01:11;;;;;;;33.45;18.23;;;;;;;;;;5033944;28;20083;-60
2022/11/20 21:03:37;;;;;;;33.97;16.77;;;;;;;;;;5033857;28;20033;-60
2022/11/20 21:06:04;;;;;;;33.92;17.73;;;;;;;;;;5033964;28;20496;-61
2022/11/20 21:08:30;;;;;;;34.28;17.95;;;;;;;;;;5033252;28;20139;-61
2022/11/20 21:11:04;;;;;;;40.40;19.60;;;;;;;;;;5033837;28;20029;-60
2022/11/20 21:13:30;;;;;;;30.63;16.35;;;;;;;;;;5033488;28;20112;-65
2022/11/20 21:15:56;;;;;;;28.92;15.98;;;;;;;;;;5033101;28;20120;-60
2022/11/20 21:18:23;;;;;;;29.42;15.48;;;;;;;;;;5033506;28;20097;-61
2022/11/20 21:23:52;;;;;;;31.10;14.93;;;;;;;;;;5011324;28;20042;-61
2022/11/20 21:26:18;;;;;;;30.52;16.27;;;;;;;;;;5011517;28;20037;-61
2022/11/20 21:28:44;;;;;;;29.80;17.05;;;;;;;;;;5005561;28;20065;-62
2022/11/20 21:31:12;;;;;;;29.92;16.13;;;;;;;;;;5001008;28;20693;-61
2022/11/20 21:33:38;;;;;;;35.50;18.73;;;;;;;;;;4999215;28;20564;-63
2022/11/20 21:36:04;;;;;;;34.35;17.35;;;;;;;;;;5000070;28;20022;-61
2022/11/20 21:38:30;;;;;;;32.88;16.05;;;;;;;;;;5000381;28;20045;-62
2022/11/20 21:40:59;;;;;;;29.70;16.23;;;;;;;;;;4998548;28;20026;-63
2022/11/20 21:43:25;;;;;;;28.02;14.80;;;;;;;;;;5000325;28;20042;-61
2022/11/20 21:45:51;;;;;;;29.25;16.00;;;;;;;;;;4998674;28;20037;-60
2022/11/20 21:48:18;;;;;;;31.55;16.73;;;;;;;;;;4999688;28;20494;-61
2022/11/20 21:50:44;;;;;;;29.48;16.35;;;;;;;;;;5000389;28;20038;-61
2022/11/20 21:53:10;;;;;;;33.97;17.38;;;;;;;;;;4996055;28;20033;-64
2022/11/20 21:55:36;;;;;;;29.50;15.27;;;;;;;;;;4999678;28;20026;-60
2022/11/20 21:58:02;;;;;;;34.55;17.88;;;;;;;;;;5012397;28;20392;-61